Time;durP1;ratioP1;P1;durP2;ratioP2;P2;SDS_P1;SDS_P2;PMS_P1;PMS_P2;Temp;Humidity;BMP_temperature;BMP_pressure;BME280_temperature;BME280_humidity;BME280_pressure;Samples;Min_cycle;Max_cycle;Signal;HPM_P1;HPM_P2
2022/03/11 00:00:53;;;;;;;2.17;1.17;;;20.50;42.70;;;;;;5014251;28;20256;-80
2022/03/11 00:03:20;;;;;;;1.50;1.00;;;20.50;42.20;;;;;;4997180;28;20183;-81
2022/03/11 00:05:46;;;;;;;2.27;1.10;;;20.60;42.70;;;;;;5014383;28;20174;-80
2022/03/11 00:08:12;;;;;;;5.03;1.30;;;20.60;42.40;;;;;;4996906;28;20433;-79
2022/03/11 00:10:38;;;;;;;2.10;1.30;;;20.60;42.30;;;;;;5012922;28;20266;-78
2022/03/11 00:13:04;;;;;;;4.10;1.10;;;20.60;42.50;;;;;;5014501;28;20409;-80
2022/03/11 00:15:30;;;;;;;2.00;1.20;;;20.70;42.60;;;;;;5014096;28;20410;-78
2022/03/11 00:17:55;;;;;;;2.10;1.17;;;20.60;42.60;;;;;;5014290;28;20175;-78
2022/03/11 00:20:21;;;;;;;2.33;1.30;;;20.70;42.50;;;;;;5013517;28;20300;-78
2022/03/11 00:22:47;;;;;;;2.63;1.10;;;20.60;42.40;;;;;;5013616;28;20209;-81
2022/03/11 00:25:14;;;;;;;2.87;1.07;;;20.60;42.50;;;;;;5015144;28;20178;-77
2022/03/11 00:27:39;;;;;;;7.00;1.30;;;20.60;42.30;;;;;;4997174;28;20417;-79
2022/03/11 00:30:05;;;;;;;1.83;1.13;;;20.60;42.40;;;;;;5014010;28;20436;-78
2022/03/11 00:32:31;;;;;;;7.33;1.20;;;20.70;42.40;;;;;;4996791;28;20261;-78
2022/03/11 00:34:56;;;;;;;7.93;2.20;;;20.70;42.40;;;;;;5013789;28;20493;-77
2022/03/11 00:37:22;;;;;;;8.00;2.00;;;20.30;37.50;;;;;;5013730;28;20179;-77
2022/03/11 00:39:48;;;;;;;11.40;1.97;;;20.20;39.80;;;;;;5040580;23;20197;-70
2022/03/11 00:42:13;;;;;;;17.93;2.00;;;20.40;39.80;;;;;;5012211;28;20265;-69
2022/03/11 00:44:40;;;;;;;6.10;1.60;;;20.50;39.70;;;;;;4994454;28;20176;-69
2022/03/11 00:47:07;;;;;;;4.83;1.60;;;20.50;39.40;;;;;;4994716;28;20258;-72
2022/03/11 00:49:33;;;;;;;3.37;1.60;;;20.50;39.50;;;;;;4994114;28;20407;-71
2022/03/11 00:51:58;;;;;;;7.60;1.57;;;20.50;39.40;;;;;;4994421;28;20517;-72
2022/03/11 00:54:25;;;;;;;5.17;2.00;;;20.50;39.20;;;;;;4994120;28;20186;-71
2022/03/11 00:56:50;;;;;;;3.40;2.00;;;20.50;39.30;;;;;;4994224;28;20702;-76
2022/03/11 00:59:16;;;;;;;12.90;1.70;;;20.50;39.20;;;;;;4993723;28;20446;-71
2022/03/11 01:01:42;;;;;;;3.37;1.40;;;20.50;39.20;;;;;;4994187;28;20249;-69
2022/03/11 01:04:08;;;;;;;8.37;1.37;;;20.50;39.30;;;;;;4994287;28;20455;-68
2022/03/11 01:06:34;;;;;;;5.73;1.50;;;20.50;39.10;;;;;;4994145;28;20175;-72
2022/03/11 01:08:59;;;;;;;2.33;1.40;;;20.50;39.20;;;;;;4993600;28;20175;-69
2022/03/11 01:11:25;;;;;;;2.17;1.23;;;20.50;39.30;;;;;;4993961;28;20187;-70
2022/03/11 01:13:51;;;;;;;5.40;1.60;;;20.40;39.40;;;;;;4993929;28;20187;-73
2022/03/11 01:16:16;;;;;;;2.60;1.20;;;20.40;39.00;;;;;;4994050;28;20536;-71
2022/03/11 01:18:42;;;;;;;2.37;1.50;;;20.40;39.20;;;;;;4993549;28;20256;-68
2022/03/11 01:21:08;;;;;;;2.73;1.40;;;20.40;39.40;;;;;;4993459;28;20341;-69
2022/03/11 01:23:34;;;;;;;4.03;1.70;;;20.40;39.20;;;;;;4995174;28;20199;-74
2022/03/11 01:25:59;;;;;;;8.43;1.80;;;20.40;39.20;;;;;;4993692;28;20450;-70
2022/03/11 01:28:25;;;;;;;4.93;1.70;;;20.40;39.30;;;;;;4995015;28;20254;-71
2022/03/11 01:30:51;;;;;;;2.43;1.50;;;20.40;39.20;;;;;;4993490;28;20678;-71
2022/03/11 01:33:16;;;;;;;3.97;1.57;;;20.40;39.20;;;;;;4993583;28;20647;-71
2022/03/11 01:35:42;;;;;;;3.20;1.60;;;20.40;39.10;;;;;;4994745;28;20175;-70
2022/03/11 01:38:07;;;;;;;4.73;1.80;;;20.30;39.10;;;;;;4994209;28;20633;-71
2022/03/11 01:40:33;;;;;;;4.10;1.57;;;20.30;39.40;;;;;;4993399;28;20214;-72
2022/03/11 01:42:59;;;;;;;3.17;1.37;;;20.30;39.40;;;;;;4993839;28;20210;-72
2022/03/11 01:45:24;;;;;;;2.67;1.77;;;20.30;39.40;;;;;;4993825;28;20580;-73
2022/03/11 01:47:50;;;;;;;2.43;1.47;;;20.30;39.70;;;;;;4993406;28;20270;-72
2022/03/11 01:50:16;;;;;;;5.40;1.97;;;20.30;39.70;;;;;;4992461;28;20636;-70
2022/03/11 01:52:41;;;;;;;3.90;1.90;;;20.30;39.60;;;;;;4994219;28;20179;-70
2022/03/11 01:55:07;;;;;;;3.30;1.77;;;20.30;39.80;;;;;;4992885;28;20654;-70
2022/03/11 01:57:37;;;;;;;3.13;1.47;;;20.20;39.80;;;;;;4992965;28;20185;-75
2022/03/11 02:00:07;;;;;;;5.40;2.00;;;20.20;39.70;;;;;;4992342;28;20265;-74
2022/03/11 02:02:33;;;;;;;3.47;2.43;;;20.20;40.20;;;;;;4992983;28;20454;-71
2022/03/11 02:05:00;;;;;;;3.43;2.07;;;20.20;40.10;;;;;;4993080;28;20422;-70
2022/03/11 02:07:26;;;;;;;3.63;1.77;;;20.20;40.10;;;;;;4992946;28;20415;-71
2022/03/11 02:09:53;;;;;;;2.70;1.70;;;20.20;39.90;;;;;;4992496;28;20767;-71
2022/03/11 02:12:32;;;;;;;2.67;1.70;;;20.20;40.30;;;;;;4993176;28;20422;-72
2022/03/11 02:15:00;;;;;;;4.10;2.10;;;20.20;40.10;;;;;;4993010;28;20496;-69
2022/03/11 02:17:26;;;;;;;7.53;2.13;;;20.20;40.30;;;;;;4993047;28;20406;-70
2022/03/11 02:19:52;;;;;;;2.90;1.90;;;20.10;40.70;;;;;;4992479;28;20529;-70
2022/03/11 02:22:22;;;;;;;3.53;2.10;;;20.10;40.30;;;;;;4992804;28;20207;-68
2022/03/11 02:24:47;;;;;;;5.93;1.60;;;20.10;40.20;;;;;;4992891;28;20171;-70
2022/03/11 02:27:13;;;;;;;2.50;1.73;;;20.20;40.30;;;;;;4992818;28;20411;-67
2022/03/11 02:29:39;;;;;;;4.27;2.50;;;20.20;40.10;;;;;;4992522;28;20175;-68
2022/03/11 02:32:05;;;;;;;3.73;2.20;;;20.20;40.20;;;;;;4992592;28;20579;-71
2022/03/11 02:34:31;;;;;;;3.83;1.80;;;20.10;40.20;;;;;;4992847;28;20206;-73
2022/03/11 02:36:57;;;;;;;4.10;2.47;;;20.10;40.10;;;;;;4992689;28;20921;-70
2022/03/11 02:39:23;;;;;;;4.80;1.97;;;20.10;40.10;;;;;;4992348;28;20422;-72
2022/03/11 02:41:51;;;;;;;3.00;2.00;;;20.10;40.80;;;;;;4992463;28;20548;-72
2022/03/11 02:44:17;;;;;;;5.10;2.40;;;20.10;40.60;;;;;;4992845;28;20218;-69
2022/03/11 02:46:43;;;;;;;4.00;2.53;;;20.10;40.40;;;;;;4992636;28;20415;-70
2022/03/11 02:49:09;;;;;;;3.67;2.00;;;20.10;40.20;;;;;;4994483;28;20457;-69
2022/03/11 02:51:34;;;;;;;7.93;2.40;;;20.10;39.80;;;;;;4996439;28;20579;-71
2022/03/11 02:54:00;;;;;;;4.27;2.30;;;20.10;40.20;;;;;;4996531;28;20179;-69
2022/03/11 02:56:25;;;;;;;3.70;2.50;;;20.10;40.20;;;;;;4996452;28;20175;-68
2022/03/11 02:58:51;;;;;;;4.37;3.17;;;20.10;40.40;;;;;;4996133;28;20194;-69
2022/03/11 03:01:17;;;;;;;3.53;2.20;;;20.00;40.60;;;;;;4996110;28;20215;-69
2022/03/11 03:03:42;;;;;;;3.47;2.07;;;20.00;40.10;;;;;;4996559;28;20171;-69
2022/03/11 03:06:08;;;;;;;3.97;2.23;;;20.00;40.20;;;;;;4996311;28;20221;-70
2022/03/11 03:08:34;;;;;;;3.73;2.60;;;20.00;40.40;;;;;;4996241;28;20175;-73
2022/03/11 03:11:00;;;;;;;6.20;2.50;;;20.10;40.50;;;;;;4996104;28;20197;-70
2022/03/11 03:13:25;;;;;;;4.60;2.50;;;20.10;40.70;;;;;;4996393;28;20178;-72
2022/03/11 03:15:51;;;;;;;5.43;2.43;;;20.00;40.40;;;;;;4996151;28;20206;-70
2022/03/11 03:18:17;;;;;;;3.90;2.50;;;20.00;40.30;;;;;;4996058;28;20175;-70
2022/03/11 03:20:43;;;;;;;4.57;2.60;;;20.00;40.60;;;;;;4995529;28;20183;-72
2022/03/11 03:23:08;;;;;;;3.70;2.27;;;20.00;40.70;;;;;;4995712;28;20265;-70
2022/03/11 03:25:34;;;;;;;6.90;3.13;;;20.00;40.60;;;;;;4995632;28;20266;-71
2022/03/11 03:28:00;;;;;;;4.30;2.27;;;20.00;40.70;;;;;;4995858;28;20622;-71
2022/03/11 03:30:25;;;;;;;4.00;2.10;;;20.00;40.60;;;;;;4995572;28;20227;-74
2022/03/11 03:32:51;;;;;;;4.00;2.03;;;20.00;40.60;;;;;;4995644;28;20190;-73
2022/03/11 03:35:17;;;;;;;5.07;2.47;;;20.00;40.70;;;;;;4995565;28;20230;-73
2022/03/11 03:37:42;;;;;;;4.10;2.43;;;19.90;40.40;;;;;;4995426;28;20183;-70
2022/03/11 03:40:10;;;;;;;3.70;2.43;;;20.00;40.30;;;;;;4994998;28;20186;-70
2022/03/11 03:42:36;;;;;;;4.90;2.57;;;19.90;40.40;;;;;;4995564;28;20755;-70
2022/03/11 03:45:02;;;;;;;5.30;2.80;;;20.00;40.40;;;;;;4996893;28;20403;-70
2022/03/11 03:47:27;;;;;;;5.93;3.23;;;19.90;40.30;;;;;;4995407;28;20306;-71
2022/03/11 03:49:53;;;;;;;6.13;2.60;;;19.90;40.30;;;;;;4995303;28;20502;-70
2022/03/11 03:52:18;;;;;;;6.23;2.97;;;19.90;40.40;;;;;;4995430;28;20201;-73
2022/03/11 03:54:44;;;;;;;8.33;2.80;;;20.00;40.20;;;;;;4995501;28;20535;-71
2022/03/11 03:57:10;;;;;;;4.60;2.50;;;20.00;40.50;;;;;;4995237;28;20175;-71
2022/03/11 03:59:37;;;;;;;4.57;2.40;;;19.90;40.70;;;;;;4994421;28;20826;-70
2022/03/11 04:02:03;;;;;;;5.70;2.87;;;19.90;40.70;;;;;;4995311;28;20211;-71
2022/03/11 04:04:29;;;;;;;5.50;2.30;;;19.90;40.60;;;;;;4995397;28;20754;-71
2022/03/11 04:06:54;;;;;;;16.03;3.10;;;19.90;40.50;;;;;;4995476;28;20489;-70
2022/03/11 04:09:20;;;;;;;5.57;2.97;;;19.90;40.30;;;;;;4995042;28;20178;-69
2022/03/11 04:11:46;;;;;;;5.03;3.10;;;19.80;40.30;;;;;;4995082;28;20202;-73
2022/03/11 04:14:12;;;;;;;6.37;2.90;;;19.80;40.40;;;;;;4995267;28;20183;-71
2022/03/11 04:16:38;;;;;;;5.03;3.00;;;19.80;40.50;;;;;;4995025;28;20186;-74
2022/03/11 04:19:03;;;;;;;3.97;2.53;;;19.90;40.30;;;;;;4994512;28;20775;-70
2022/03/11 04:21:30;;;;;;;15.17;3.20;;;19.80;40.00;;;;;;4994896;28;20207;-71
2022/03/11 04:23:56;;;;;;;4.87;3.17;;;19.80;39.90;;;;;;4995072;28;20178;-71
2022/03/11 04:26:22;;;;;;;5.10;3.00;;;19.80;39.70;;;;;;4994929;28;20419;-70
2022/03/11 04:28:48;;;;;;;4.90;3.13;;;19.80;39.70;;;;;;4994610;28;20410;-68
2022/03/11 04:31:14;;;;;;;6.20;3.10;;;19.80;39.90;;;;;;4994618;28;20199;-71
2022/03/11 04:33:41;;;;;;;5.00;2.87;;;19.70;39.70;;;;;;4994807;28;20759;-71
2022/03/11 04:36:08;;;;;;;4.57;2.67;;;19.70;39.50;;;;;;4994936;28;20279;-69
2022/03/11 04:38:34;;;;;;;4.40;2.80;;;19.70;39.70;;;;;;4994464;28;20798;-72
2022/03/11 04:41:01;;;;;;;13.13;3.50;;;19.80;39.70;;;;;;4994272;28;21033;-71
2022/03/11 04:43:27;;;;;;;18.40;3.10;;;19.70;39.70;;;;;;4994326;28;20221;-74
2022/03/11 04:45:53;;;;;;;5.37;2.50;;;19.80;41.50;;;;;;4994670;28;20411;-74
2022/03/11 04:48:19;;;;;;;3.80;2.77;;;19.80;40.90;;;;;;4994026;28;20998;-69
2022/03/11 04:50:45;;;;;;;5.97;3.30;;;19.80;39.00;;;;;;4993910;28;20949;-71
2022/03/11 04:53:11;;;;;;;4.13;2.40;;;19.80;38.90;;;;;;4995651;28;20410;-73
2022/03/11 04:55:36;;;;;;;11.43;3.43;;;19.70;39.10;;;;;;4994418;28;20642;-72
2022/03/11 04:58:03;;;;;;;14.20;2.90;;;19.70;39.20;;;;;;4994458;28;20178;-70
2022/03/11 05:00:28;;;;;;;8.97;2.63;;;19.70;39.70;;;;;;4993902;28;20246;-71
2022/03/11 05:02:54;;;;;;;6.97;2.90;;;19.70;39.50;;;;;;4994182;28;20485;-73
2022/03/11 05:05:21;;;;;;;8.23;2.83;;;19.70;39.40;;;;;;4994372;28;20612;-73
2022/03/11 05:07:47;;;;;;;5.60;3.20;;;19.70;39.30;;;;;;4994155;28;20223;-71
2022/03/11 05:10:14;;;;;;;6.70;2.70;;;19.70;39.70;;;;;;4993274;28;20406;-72
2022/03/11 05:12:40;;;;;;;5.73;3.40;;;19.60;39.60;;;;;;4993436;28;20418;-72
2022/03/11 05:15:07;;;;;;;5.17;2.97;;;19.60;39.10;;;;;;4995244;28;20410;-74
2022/03/11 05:17:32;;;;;;;4.60;3.10;;;19.70;39.70;;;;;;4993824;28;20421;-74
2022/03/11 05:19:58;;;;;;;5.77;3.47;;;19.60;39.70;;;;;;4993367;28;20410;-74
2022/03/11 05:22:24;;;;;;;7.10;2.90;;;19.60;39.30;;;;;;4998082;28;20210;-74
2022/03/11 05:24:50;;;;;;;6.00;3.20;;;19.60;39.30;;;;;;5010001;28;20179;-73
2022/03/11 05:27:16;;;;;;;6.77;4.03;;;19.70;39.40;;;;;;4993696;28;20458;-75
2022/03/11 05:29:42;;;;;;;4.90;3.13;;;19.70;39.40;;;;;;5003720;28;20500;-74
2022/03/11 05:32:09;;;;;;;5.47;3.10;;;19.70;39.10;;;;;;4997970;28;20465;-71
2022/03/11 05:34:38;;;;;;;5.00;2.90;;;19.70;39.00;;;;;;5010025;28;20415;-71
2022/03/11 05:37:05;;;;;;;5.97;3.17;;;19.70;39.30;;;;;;5009496;28;20430;-70
2022/03/11 05:39:31;;;;;;;4.33;2.90;;;19.70;39.50;;;;;;5009255;28;20429;-73
2022/03/11 05:41:57;;;;;;;4.50;3.17;;;19.70;39.10;;;;;;5009654;28;20501;-75
2022/03/11 05:44:23;;;;;;;4.47;2.93;;;19.70;39.30;;;;;;5009661;28;20808;-75
2022/03/11 05:46:49;;;;;;;6.67;3.47;;;19.70;39.30;;;;;;5009782;28;20407;-71
2022/03/11 05:49:15;;;;;;;5.23;2.97;;;19.70;39.30;;;;;;5009257;28;20441;-72
2022/03/11 05:51:41;;;;;;;4.37;3.10;;;19.70;39.30;;;;;;5009715;28;20431;-71
2022/03/11 05:54:07;;;;;;;6.30;3.73;;;19.70;39.40;;;;;;4994544;28;20171;-69
2022/03/11 05:56:34;;;;;;;5.30;3.23;;;19.70;39.50;;;;;;4994624;28;20175;-73
2022/03/11 05:59:00;;;;;;;7.00;4.27;;;19.70;39.50;;;;;;5009227;28;20263;-72
2022/03/11 06:01:26;;;;;;;6.80;3.57;;;19.70;39.10;;;;;;5009364;28;21000;-71
2022/03/11 06:03:52;;;;;;;6.87;3.30;;;19.70;39.50;;;;;;4994279;28;20482;-71
2022/03/11 06:06:18;;;;;;;5.37;3.83;;;19.80;39.10;;;;;;5009582;28;20175;-75
2022/03/11 06:08:44;;;;;;;14.80;3.43;;;19.80;39.50;;;;;;5009080;28;20254;-75
2022/03/11 06:11:10;;;;;;;6.90;3.20;;;19.80;39.40;;;;;;5009336;28;20507;-76
2022/03/11 06:13:37;;;;;;;7.20;4.00;;;19.70;39.50;;;;;;5011261;28;20425;-76
2022/03/11 06:16:03;;;;;;;6.13;3.60;;;19.70;39.30;;;;;;5014121;28;20205;-71
2022/03/11 06:18:30;;;;;;;8.77;4.03;;;19.80;39.30;;;;;;5009836;28;20882;-74
2022/03/11 06:20:59;;;;;;;9.03;5.00;;;19.80;39.00;;;;;;4997422;28;20430;-72
2022/03/11 06:23:25;;;;;;;11.00;4.20;;;19.70;39.50;;;;;;4992257;28;20822;-73
2022/03/11 06:25:50;;;;;;;5.90;3.57;;;19.80;39.30;;;;;;4976240;28;20466;-71
2022/03/11 06:28:16;;;;;;;5.20;3.50;;;19.80;39.20;;;;;;4971810;28;20451;-72
2022/03/11 06:30:45;;;;;;;7.00;4.37;;;19.70;39.10;;;;;;4971095;28;20589;-72
2022/03/11 06:33:11;;;;;;;8.00;3.63;;;19.70;39.30;;;;;;4971948;28;20544;-72
2022/03/11 06:35:37;;;;;;;5.40;3.50;;;19.70;39.30;;;;;;4973364;28;20419;-73
2022/03/11 06:38:03;;;;;;;9.90;4.43;;;19.70;39.30;;;;;;4973375;28;20419;-75
2022/03/11 06:40:29;;;;;;;7.60;4.70;;;19.70;39.10;;;;;;4972623;28;20979;-74
2022/03/11 06:42:55;;;;;;;7.30;4.50;;;19.70;39.20;;;;;;4974282;28;20206;-75
2022/03/11 06:45:22;;;;;;;5.90;4.07;;;19.70;38.90;;;;;;4973540;28;20828;-71
2022/03/11 06:47:48;;;;;;;10.37;4.20;;;19.70;38.90;;;;;;4973024;28;20982;-71
2022/03/11 06:50:16;;;;;;;8.10;4.60;;;19.70;39.10;;;;;;4972495;28;20439;-70
2022/03/11 06:52:42;;;;;;;8.50;4.20;;;19.70;39.10;;;;;;4973123;28;20454;-75
2022/03/11 06:55:09;;;;;;;6.00;4.30;;;19.70;39.00;;;;;;4972943;28;20419;-72
2022/03/11 06:57:35;;;;;;;8.70;5.07;;;19.80;39.00;;;;;;4972827;28;20426;-74
2022/03/11 07:00:01;;;;;;;6.53;4.60;;;19.80;38.60;;;;;;4972388;28;20419;-76
2022/03/11 07:02:27;;;;;;;10.00;4.20;;;19.80;39.00;;;;;;4972782;28;20740;-71
2022/03/11 07:04:52;;;;;;;9.30;4.50;;;19.80;38.60;;;;;;4973171;28;20415;-75
2022/03/11 07:07:18;;;;;;;8.10;4.23;;;19.90;38.70;;;;;;4973219;28;20422;-70
2022/03/11 07:09:43;;;;;;;6.67;4.40;;;19.90;39.00;;;;;;4972784;28;20171;-73
2022/03/11 07:12:09;;;;;;;6.60;4.10;;;19.90;38.80;;;;;;4973221;28;20228;-70
2022/03/11 07:14:36;;;;;;;6.70;4.60;;;19.90;38.80;;;;;;4973073;28;20183;-71
2022/03/11 07:17:03;;;;;;;9.00;5.10;;;19.90;38.60;;;;;;4973326;28;20175;-74
2022/03/11 07:19:29;;;;;;;9.33;4.80;;;19.90;38.90;;;;;;4972463;28;20919;-70
2022/03/11 07:21:59;;;;;;;9.00;5.23;;;19.90;38.80;;;;;;4972809;28;20466;-70
2022/03/11 07:24:26;;;;;;;15.23;5.33;;;19.90;38.60;;;;;;4973101;28;20172;-70
2022/03/11 07:26:51;;;;;;;9.00;5.20;;;19.90;38.90;;;;;;4973115;28;20498;-72
2022/03/11 07:29:17;;;;;;;10.87;6.10;;;20.00;38.90;;;;;;4972487;28;20494;-74
2022/03/11 07:31:43;;;;;;;11.63;6.40;;;20.00;39.00;;;;;;4973004;28;20239;-78
2022/03/11 07:34:09;;;;;;;16.20;8.10;;;20.10;38.70;;;;;;4973418;28;20262;-73
2022/03/11 07:36:34;;;;;;;12.90;7.37;;;20.20;38.80;;;;;;4976650;28;20187;-75
2022/03/11 07:39:01;;;;;;;14.70;7.80;;;20.30;38.70;;;;;;4977213;28;20403;-73
2022/03/11 07:41:28;;;;;;;14.33;7.93;;;20.40;38.10;;;;;;4976203;28;20533;-74
2022/03/11 07:43:54;;;;;;;11.37;7.10;;;20.50;38.00;;;;;;4976137;28;20411;-74
2022/03/11 07:46:21;;;;;;;13.50;7.37;;;20.60;37.80;;;;;;4976107;28;20775;-76
2022/03/11 07:48:46;;;;;;;13.57;7.80;;;20.60;37.70;;;;;;4975549;28;20226;-76
2022/03/11 07:51:12;;;;;;;13.33;7.70;;;20.70;38.00;;;;;;4976004;28;20431;-73
2022/03/11 07:53:38;;;;;;;13.30;7.37;;;20.80;37.70;;;;;;4976037;28;20176;-71
2022/03/11 07:56:05;;;;;;;14.73;7.63;;;20.80;37.50;;;;;;4975941;28;20172;-72
2022/03/11 07:58:31;;;;;;;14.80;7.93;;;20.80;37.70;;;;;;4975608;28;20608;-71
2022/03/11 08:00:56;;;;;;;16.63;7.93;;;20.80;37.70;;;;;;4975923;28;20494;-70
2022/03/11 08:03:22;;;;;;;17.87;7.63;;;20.80;37.70;;;;;;4975958;28;20283;-70
2022/03/11 08:05:49;;;;;;;12.87;8.67;;;20.80;37.70;;;;;;4975690;28;20230;-74
2022/03/11 08:08:15;;;;;;;12.30;7.60;;;20.80;37.70;;;;;;4977197;28;20640;-72
2022/03/11 08:10:41;;;;;;;17.57;7.80;;;20.80;37.60;;;;;;4975155;28;20431;-74
2022/03/11 08:13:07;;;;;;;14.43;7.47;;;20.80;37.70;;;;;;4977167;28;20469;-72
2022/03/11 08:15:34;;;;;;;18.77;8.67;;;20.80;37.40;;;;;;4975505;28;20772;-72
2022/03/11 08:18:00;;;;;;;15.13;7.73;;;20.80;37.60;;;;;;4975759;28;20172;-69
2022/03/11 08:20:25;;;;;;;16.60;7.60;;;20.80;38.00;;;;;;4975012;28;20435;-72
2022/03/11 08:22:51;;;;;;;21.50;8.80;;;20.90;38.40;;;;;;4975537;28;20661;-71
2022/03/11 08:25:18;;;;;;;20.73;9.13;;;20.90;38.20;;;;;;4975558;28;20231;-74
2022/03/11 08:27:44;;;;;;;17.97;8.17;;;20.90;38.00;;;;;;4975481;28;20215;-71
2022/03/11 08:30:10;;;;;;;17.83;8.33;;;20.80;38.20;;;;;;4974684;28;20920;-73
2022/03/11 08:32:37;;;;;;;14.43;7.43;;;20.80;38.60;;;;;;4975617;28;20466;-70
2022/03/11 08:35:04;;;;;;;16.80;9.13;;;20.80;38.80;;;;;;4975420;28;20420;-72
2022/03/11 08:37:30;;;;;;;14.93;8.73;;;20.80;38.60;;;;;;4975274;28;20419;-71
2022/03/11 08:39:55;;;;;;;19.67;7.90;;;20.80;38.50;;;;;;4974604;28;20429;-72
2022/03/11 08:42:21;;;;;;;13.47;8.10;;;20.80;39.00;;;;;;4975169;28;20493;-72
2022/03/11 08:44:47;;;;;;;25.00;8.60;;;20.80;39.10;;;;;;4975193;28;20176;-70
2022/03/11 08:47:13;;;;;;;17.10;8.73;;;20.80;39.30;;;;;;4975245;28;20671;-70
2022/03/11 08:49:39;;;;;;;19.97;8.10;;;20.70;38.90;;;;;;4974617;28;20231;-70
2022/03/11 08:52:05;;;;;;;14.63;8.50;;;20.80;39.10;;;;;;4975038;28;20435;-71
2022/03/11 08:54:30;;;;;;;19.63;8.77;;;20.80;39.20;;;;;;4975053;28;20524;-71
2022/03/11 08:56:56;;;;;;;14.10;6.73;;;20.80;38.50;;;;;;4975074;28;20514;-71
2022/03/11 08:59:22;;;;;;;16.00;8.03;;;20.90;38.90;;;;;;4974606;28;20199;-69
2022/03/11 09:01:48;;;;;;;12.93;7.63;;;21.00;39.00;;;;;;4974624;28;20304;-70
2022/03/11 09:04:14;;;;;;;16.00;8.67;;;21.10;38.60;;;;;;4974838;28;20179;-69
2022/03/11 09:06:40;;;;;;;15.37;7.20;;;21.20;38.40;;;;;;4974773;28;20415;-70
2022/03/11 09:09:06;;;;;;;17.33;8.30;;;21.40;37.80;;;;;;4974501;28;20176;-73
2022/03/11 09:11:32;;;;;;;13.23;7.13;;;21.50;39.10;;;;;;4974719;28;20540;-71
2022/03/11 09:13:57;;;;;;;11.40;7.27;;;21.60;40.20;;;;;;4974766;28;20183;-71
2022/03/11 09:16:23;;;;;;;10.40;6.23;;;21.60;40.00;;;;;;4975831;28;20737;-71
2022/03/11 09:18:49;;;;;;;11.27;6.53;;;21.60;40.70;;;;;;4974163;28;20193;-72
2022/03/11 09:21:15;;;;;;;15.07;7.50;;;21.70;41.00;;;;;;4974108;28;20768;-70
2022/03/11 09:23:42;;;;;;;11.47;6.47;;;21.80;40.90;;;;;;4974627;28;20196;-73
2022/03/11 09:26:07;;;;;;;13.30;7.20;;;21.90;41.40;;;;;;4974762;28;20411;-71
2022/03/11 09:28:33;;;;;;;11.03;6.07;;;22.00;41.70;;;;;;4974340;28;20407;-73
2022/03/11 09:31:01;;;;;;;11.17;6.50;;;22.00;41.40;;;;;;4974113;28;20287;-71
2022/03/11 09:33:27;;;;;;;13.43;6.90;;;22.20;42.00;;;;;;4974535;28;20180;-72
2022/03/11 09:35:52;;;;;;;14.37;7.87;;;22.20;41.80;;;;;;4974377;28;20466;-72
2022/03/11 09:38:18;;;;;;;12.50;8.30;;;22.20;40.00;;;;;;4974280;28;20931;-72
2022/03/11 09:40:45;;;;;;;19.50;8.23;;;22.20;39.40;;;;;;4973400;28;20219;-73
2022/03/11 09:43:11;;;;;;;26.30;8.20;;;22.20;39.50;;;;;;4975422;28;20203;-72
2022/03/11 09:45:37;;;;;;;18.60;8.00;;;22.20;39.70;;;;;;4973995;28;20423;-72
2022/03/11 09:48:04;;;;;;;11.60;7.33;;;22.20;39.30;;;;;;4974116;28;20410;-72
2022/03/11 09:50:30;;;;;;;16.90;7.57;;;22.30;38.80;;;;;;4973350;28;20206;-72
2022/03/11 09:52:56;;;;;;;30.33;7.70;;;22.30;38.80;;;;;;4973999;28;20407;-71
2022/03/11 09:55:22;;;;;;;22.30;7.63;;;22.30;38.80;;;;;;4973953;28;20179;-72
2022/03/11 09:57:47;;;;;;;23.87;7.87;;;22.40;39.60;;;;;;4973537;28;20395;-72
2022/03/11 10:00:13;;;;;;;23.40;7.50;;;22.40;39.80;;;;;;4973348;28;20175;-72
2022/03/11 10:02:44;;;;;;;14.40;7.20;;;22.50;39.80;;;;;;4973517;28;20261;-73
2022/03/11 10:05:10;;;;;;;15.03;6.60;;;22.50;40.00;;;;;;4973528;28;20418;-73
2022/03/11 10:07:36;;;;;;;12.77;6.50;;;22.50;40.00;;;;;;4973921;28;20411;-71
2022/03/11 10:10:14;;;;;;;11.97;7.13;;;22.50;40.00;;;;;;4974301;28;20203;-72
2022/03/11 10:12:43;;;;;;;9.10;5.53;;;22.60;40.10;;;;;;4973726;28;20209;-72
2022/03/11 10:15:09;;;;;;;18.13;6.10;;;22.60;40.10;;;;;;4973515;28;20957;-73
2022/03/11 10:17:43;;;;;;;10.40;6.33;;;22.60;40.10;;;;;;4973344;28;20422;-73
2022/03/11 10:20:15;;;;;;;10.60;6.10;;;22.60;40.70;;;;;;4973094;28;20462;-72
2022/03/11 10:22:42;;;;;;;13.73;6.60;;;22.60;40.10;;;;;;4973240;28;20985;-73
2022/03/11 10:25:19;;;;;;;10.83;6.17;;;22.60;40.10;;;;;;4973485;28;20410;-74
2022/03/11 10:28:02;;;;;;;12.43;6.03;;;22.60;40.20;;;;;;4973264;28;20415;-73
2022/03/11 10:30:32;;;;;;;20.97;6.00;;;22.60;40.50;;;;;;4972941;28;20517;-72
2022/03/11 10:33:01;;;;;;;7.80;5.17;;;22.70;40.80;;;;;;4973632;28;20939;-72
2022/03/11 10:35:31;;;;;;;11.73;6.00;;;22.70;40.90;;;;;;4973493;28;20419;-72
2022/03/11 10:37:59;;;;;;;12.53;5.33;;;22.70;40.80;;;;;;4973204;28;20432;-72
2022/03/11 10:40:26;;;;;;;7.50;5.20;;;22.70;40.90;;;;;;4973178;28;20466;-72
2022/03/11 10:43:12;;;;;;;10.13;4.93;;;22.80;41.20;;;;;;4974403;28;20465;-73
2022/03/11 10:45:55;;;;;;;8.67;5.30;;;22.70;41.10;;;;;;4973407;28;20863;-73
2022/03/11 10:48:45;;;;;;;7.17;4.87;;;22.80;41.20;;;;;;4973364;28;20426;-73
2022/03/11 10:51:32;;;;;;;8.60;5.43;;;22.80;41.10;;;;;;4973123;28;20433;-72
2022/03/11 10:54:00;;;;;;;7.63;5.07;;;22.80;41.10;;;;;;4973392;28;20767;-74
2022/03/11 10:56:35;;;;;;;7.77;4.77;;;22.80;41.20;;;;;;4973455;28;20903;-73
2022/03/11 10:59:04;;;;;;;9.50;4.70;;;22.80;41.20;;;;;;4972859;28;20911;-75
2022/03/11 11:01:39;;;;;;;7.60;4.50;;;22.80;41.20;;;;;;4973199;28;20431;-73
2022/03/11 11:04:07;;;;;;;6.77;4.83;;;22.80;41.70;;;;;;4974448;28;20438;-74
2022/03/11 11:06:34;;;;;;;8.10;5.10;;;22.70;38.80;;;;;;4973221;28;20459;-70
2022/03/11 11:09:04;;;;;;;9.23;4.70;;;22.70;39.00;;;;;;4976911;28;20425;-74
2022/03/11 11:11:31;;;;;;;8.80;4.80;;;22.60;37.90;;;;;;4995222;28;20794;-67
2022/03/11 11:14:00;;;;;;;12.10;5.40;;;22.40;37.70;;;;;;4993962;28;20433;-66
2022/03/11 11:16:30;;;;;;;9.30;5.30;;;22.40;37.10;;;;;;4996156;28;20902;-63
2022/03/11 11:18:58;;;;;;;10.20;6.27;;;22.30;36.00;;;;;;4993317;28;20438;-74
2022/03/11 11:21:25;;;;;;;9.33;5.10;;;22.30;35.20;;;;;;4990716;28;20441;-76
2022/03/11 11:23:55;;;;;;;8.20;5.00;;;22.30;37.00;;;;;;5004712;28;20521;-70
2022/03/11 11:26:25;;;;;;;12.97;4.87;;;22.40;36.90;;;;;;4994980;28;20410;-70
2022/03/11 11:29:00;;;;;;;10.50;5.83;;;22.50;37.90;;;;;;5013353;28;20492;-72
2022/03/11 11:31:26;;;;;;;7.83;5.50;;;22.50;36.00;;;;;;5015275;28;20437;-74
2022/03/11 11:33:52;;;;;;;9.90;5.30;;;22.50;37.10;;;;;;5014082;28;20426;-72
2022/03/11 11:36:44;;;;;;;9.27;4.67;;;22.50;38.30;;;;;;5011130;28;20457;-73
2022/03/11 11:39:11;;;;;;;9.10;4.47;;;22.50;38.80;;;;;;4992210;28;20282;-72
2022/03/11 11:41:37;;;;;;;6.23;3.80;;;22.50;39.10;;;;;;4995506;28;20473;-73
2022/03/11 11:44:06;;;;;;;6.77;4.70;;;22.50;39.40;;;;;;4992878;28;20415;-72
2022/03/11 11:46:36;;;;;;;9.27;4.27;;;22.50;39.60;;;;;;4994271;28;20346;-72
2022/03/11 11:49:07;;;;;;;7.30;3.37;;;22.50;39.80;;;;;;5002322;28;20443;-72
2022/03/11 11:51:32;;;;;;;5.50;3.43;;;22.50;39.90;;;;;;5006030;28;20433;-73
2022/03/11 11:54:08;;;;;;;6.53;3.60;;;22.60;40.30;;;;;;5006271;28;20480;-72
2022/03/11 11:56:39;;;;;;;5.07;3.37;;;22.60;40.60;;;;;;4993678;28;20178;-73
2022/03/11 11:59:26;;;;;;;7.13;3.67;;;22.50;40.30;;;;;;4994907;28;20415;-72
2022/03/11 12:01:53;;;;;;;5.60;3.50;;;22.60;40.50;;;;;;4994017;28;20865;-72
2022/03/11 12:04:29;;;;;;;5.70;3.40;;;22.50;40.60;;;;;;4994062;28;20422;-73
2022/03/11 12:06:57;;;;;;;4.57;3.23;;;22.50;40.80;;;;;;4983892;28;20427;-71
2022/03/11 12:09:50;;;;;;;5.83;3.40;;;22.60;41.00;;;;;;4974182;28;20419;-72
2022/03/11 12:12:19;;;;;;;6.83;3.10;;;22.60;41.00;;;;;;4990579;28;20498;-70
2022/03/11 12:15:00;;;;;;;5.17;3.07;;;22.50;41.10;;;;;;4974503;28;20458;-71
2022/03/11 12:17:38;;;;;;;5.47;3.30;;;22.50;41.20;;;;;;4974315;28;20474;-72
2022/03/11 12:20:26;;;;;;;4.10;3.00;;;22.50;41.30;;;;;;4990085;28;20449;-70
2022/03/11 12:23:05;;;;;;;4.37;2.57;;;22.50;41.40;;;;;;5013469;28;20724;-68
2022/03/11 12:25:34;;;;;;;5.77;3.27;;;22.50;41.50;;;;;;5013362;28;20417;-69
2022/03/11 12:28:12;;;;;;;5.93;3.10;;;22.50;41.60;;;;;;5012945;28;20414;-69
2022/03/11 12:30:47;;;;;;;3.90;2.60;;;22.50;41.70;;;;;;5012942;28;20440;-69
2022/03/11 12:33:17;;;;;;;4.53;2.80;;;22.50;41.70;;;;;;5012356;28;20443;-69
2022/03/11 12:35:46;;;;;;;4.60;2.53;;;22.50;41.70;;;;;;5002385;28;20426;-68
2022/03/11 12:38:18;;;;;;;6.90;3.90;;;22.40;41.70;;;;;;4983098;28;20415;-69
2022/03/11 12:40:45;;;;;;;10.80;5.50;;;22.40;41.10;;;;;;4983352;28;20469;-68
2022/03/11 12:43:12;;;;;;;11.13;5.43;;;22.40;37.10;;;;;;4992057;28;20462;-69